createdAt,value
2022-10-11T00:04:42.866Z,98.00
2022-10-11T00:11:00.155Z,99.28
2022-10-11T00:17:03.661Z,99.52
2022-10-11T00:23:05.647Z,100.00
2022-10-11T00:29:08.448Z,100.00
2022-10-11T00:35:10.538Z,100.00
2022-10-11T00:41:19.753Z,99.57
2022-10-11T00:47:24.620Z,99.36
2022-10-11T00:53:30.433Z,98.95
2022-10-11T00:59:56.076Z,100.00
2022-10-11T01:06:03.676Z,100.00
2022-10-11T01:20:17.446Z,100.00
2022-10-11T01:26:53.867Z,100.00
2022-10-11T01:33:35.358Z,100.00
2022-10-11T01:39:51.930Z,100.00
2022-10-11T01:45:58.775Z,100.00
2022-10-11T01:52:09.583Z,100.00
2022-10-11T01:58:26.433Z,100.00
2022-10-11T02:04:48.054Z,99.62
2022-10-11T02:11:29.902Z,100.00
2022-10-11T02:17:37.729Z,100.00
2022-10-11T02:23:54.180Z,100.00
2022-10-11T02:29:59.919Z,100.00
2022-10-11T02:36:18.001Z,100.00
2022-10-11T02:42:30.667Z,100.00
2022-10-11T02:48:35.520Z,100.00
2022-10-11T02:54:37.370Z,100.00
2022-10-11T03:00:39.272Z,100.00
2022-10-11T03:06:41.219Z,100.00
2022-10-11T03:12:43.114Z,100.00
2022-10-11T03:18:45.034Z,100.00
2022-10-11T03:24:47.061Z,100.00
2022-10-11T03:30:50.265Z,100.00
2022-10-11T03:36:52.220Z,100.00
2022-10-11T03:42:56.311Z,100.00
2022-10-11T03:48:58.303Z,100.00
2022-10-11T03:55:00.181Z,100.00
2022-10-11T04:01:11.042Z,100.00
2022-10-11T04:07:13.771Z,100.00
2022-10-11T04:13:16.229Z,100.00
2022-10-11T04:19:18.301Z,100.00
2022-10-11T04:25:20.302Z,100.00
2022-10-11T04:31:22.600Z,100.00
2022-10-11T04:37:26.145Z,100.00
2022-10-11T04:43:28.043Z,100.00
2022-10-11T04:49:30.825Z,100.00
2022-10-11T04:55:32.865Z,100.00
2022-10-11T05:01:35.335Z,100.00
2022-10-11T05:07:42.234Z,100.00
2022-10-11T05:13:45.879Z,100.00
2022-10-11T05:19:47.871Z,100.00
2022-10-11T05:25:49.737Z,100.00
2022-10-11T05:31:51.596Z,100.00
2022-10-11T05:44:17.002Z,100.00
2022-10-11T05:50:24.451Z,100.00
2022-10-11T05:56:28.957Z,100.00
2022-10-11T06:02:30.856Z,100.00
2022-10-11T06:08:33.689Z,100.00
2022-10-11T06:14:36.148Z,100.00
2022-10-11T06:20:38.046Z,100.00
2022-10-11T06:26:40.369Z,100.00
2022-10-11T06:32:42.392Z,100.00
2022-10-11T06:38:45.328Z,100.00
2022-10-11T06:45:01.023Z,100.00
2022-10-11T06:51:03.874Z,100.00
2022-10-11T06:57:05.813Z,100.00
2022-10-11T07:03:08.800Z,100.00
2022-10-11T07:09:11.038Z,99.86
2022-10-11T07:15:13.022Z,99.59
2022-10-11T07:21:16.180Z,99.11
2022-10-11T07:27:18.032Z,97.57
2022-10-11T07:33:19.957Z,99.30
2022-10-11T07:39:22.052Z,99.87
2022-10-11T07:45:28.656Z,100.00
2022-10-11T07:51:30.545Z,98.14
2022-10-11T07:57:33.349Z,96.80
2022-10-11T08:03:35.557Z,96.44
2022-10-11T08:09:37.474Z,96.79
2022-10-11T08:15:39.352Z,93.66
2022-10-11T08:21:42.347Z,93.53
2022-10-11T08:27:44.280Z,91.15
2022-10-11T08:33:46.264Z,87.32
2022-10-11T08:39:59.222Z,86.46
2022-10-11T08:46:04.763Z,85.90
2022-10-11T08:52:27.523Z,84.65
2022-10-11T08:58:45.734Z,84.68
2022-10-11T09:04:52.766Z,82.69
2022-10-11T09:17:58.476Z,80.74
2022-10-11T09:24:05.926Z,80.06
2022-10-11T09:30:18.562Z,79.18
2022-10-11T09:36:37.415Z,79.20
2022-10-11T09:42:39.316Z,77.73
2022-10-11T09:48:41.936Z,76.47
2022-10-11T09:55:00.583Z,74.67
2022-10-11T10:01:13.730Z,74.63
2022-10-11T10:07:16.239Z,73.32
2022-10-11T10:20:07.132Z,73.90
2022-10-11T10:26:22.565Z,73.22
2022-10-11T10:32:38.031Z,72.22
2022-10-11T10:39:13.110Z,69.11
2022-10-11T10:45:21.560Z,67.71
2022-10-11T10:52:03.031Z,62.44
2022-10-11T10:58:30.160Z,61.75
2022-10-11T11:04:34.214Z,54.66
2022-10-11T11:11:04.366Z,54.38
2022-10-11T11:17:28.256Z,56.35
2022-10-11T11:24:26.745Z,57.98
2022-10-11T11:30:46.575Z,56.21
2022-10-11T11:37:06.715Z,53.66
2022-10-11T11:43:38.201Z,50.16
2022-10-11T11:49:55.841Z,47.24
2022-10-11T11:56:10.198Z,46.71
2022-10-11T12:09:22.764Z,40.00
2022-10-11T12:15:26.985Z,36.03
2022-10-11T12:21:37.715Z,34.74
2022-10-11T12:27:53.270Z,34.81
2022-10-11T12:34:20.035Z,35.64
2022-10-11T12:40:45.815Z,33.59
2022-10-11T12:46:50.770Z,35.53
2022-10-11T12:53:19.969Z,35.58
2022-10-11T12:59:24.517Z,37.04
2022-10-11T13:05:47.737Z,33.61
2022-10-11T13:12:38.826Z,31.88
2022-10-11T13:18:47.664Z,33.60
2022-10-11T13:24:49.643Z,35.53
2022-10-11T13:30:58.432Z,36.56
2022-10-11T13:37:00.468Z,37.15
2022-10-11T13:43:05.358Z,34.39
2022-10-11T13:49:44.486Z,31.80
2022-10-11T13:56:00.588Z,31.00
2022-10-11T14:02:13.495Z,29.22
2022-10-11T14:08:58.519Z,29.55
2022-10-11T14:15:06.028Z,31.16
2022-10-11T14:21:33.596Z,31.80
2022-10-11T14:27:37.429Z,29.89
2022-10-11T14:33:39.799Z,29.94
2022-10-11T14:39:42.572Z,29.14
2022-10-11T14:45:44.503Z,32.41
2022-10-11T14:51:48.918Z,35.76
2022-10-11T14:57:50.873Z,38.84
2022-10-11T15:03:52.931Z,40.64
2022-10-11T15:17:37.269Z,46.07
2022-10-11T15:23:39.355Z,47.95
2022-10-11T15:29:41.261Z,48.25
2022-10-11T15:35:43.275Z,46.93
2022-10-11T15:41:45.157Z,41.39
2022-10-11T15:47:47.939Z,38.54
2022-10-11T15:53:49.945Z,37.50
2022-10-11T15:59:51.959Z,37.94
2022-10-11T16:05:55.493Z,39.90
2022-10-11T16:11:57.598Z,47.85
2022-10-11T16:18:00.669Z,52.02
2022-10-11T16:24:02.639Z,59.18
2022-10-11T16:30:05.064Z,63.46
2022-10-11T16:36:27.285Z,65.91
2022-10-11T16:42:29.255Z,68.13
2022-10-11T16:48:31.208Z,70.31
2022-10-11T16:54:33.172Z,72.93
2022-10-11T17:00:35.325Z,73.75
2022-10-11T17:06:37.848Z,74.50
2022-10-11T17:12:39.829Z,76.42
2022-10-11T17:18:42.378Z,76.87
2022-10-11T17:24:44.825Z,77.57
2022-10-11T17:30:56.003Z,79.75
2022-10-11T17:37:01.252Z,80.34
2022-10-11T17:43:03.206Z,80.37
2022-10-11T17:49:07.891Z,80.70
2022-10-11T17:55:10.024Z,80.75
2022-10-11T18:01:17.094Z,81.15
2022-10-11T18:07:19.206Z,81.02
2022-10-11T18:13:21.279Z,81.97
2022-10-11T18:19:27.920Z,82.23
2022-10-11T18:25:33.396Z,82.56
2022-10-11T18:31:38.791Z,82.79
2022-10-11T18:37:40.695Z,83.10
2022-10-11T18:43:42.992Z,83.38
2022-10-11T18:49:44.886Z,84.34
2022-10-11T18:56:06.312Z,84.86
2022-10-11T19:02:12.153Z,84.63
2022-10-11T19:08:14.072Z,84.90
2022-10-11T19:14:19.816Z,85.96
2022-10-11T19:20:22.558Z,86.21
2022-10-11T19:33:16.858Z,87.21
2022-10-11T19:39:20.603Z,86.09
2022-10-11T19:45:22.842Z,86.29
2022-10-11T19:51:27.811Z,87.90
2022-10-11T19:57:30.948Z,89.09
2022-10-11T20:03:34.105Z,90.43
2022-10-11T20:09:36.639Z,92.36
2022-10-11T20:15:38.904Z,92.29
2022-10-11T20:21:43.213Z,91.15
2022-10-11T20:27:46.464Z,91.58
2022-10-11T20:33:49.247Z,91.50
2022-10-11T20:39:51.181Z,90.34
2022-10-11T20:46:08.984Z,89.90
2022-10-11T20:52:11.063Z,90.29
2022-10-11T20:58:15.306Z,90.18
2022-10-11T21:04:20.493Z,91.28
2022-10-11T21:10:22.349Z,91.94
2022-10-11T21:16:26.282Z,92.39
2022-10-11T21:22:28.130Z,92.40
2022-10-11T21:28:30.230Z,92.94
2022-10-11T21:34:32.132Z,93.17
2022-10-11T21:40:37.834Z,94.32
2022-10-11T21:47:05.658Z,94.38
2022-10-11T21:53:01.590Z,95.42
2022-10-11T21:59:06.604Z,95.81
2022-10-11T22:05:11.494Z,97.33
2022-10-11T22:11:13.503Z,97.22
2022-10-11T22:17:15.407Z,97.84
2022-10-11T22:23:18.932Z,97.19
2022-10-11T22:29:21.115Z,96.17
2022-10-11T22:35:23.266Z,94.74
2022-10-11T22:41:26.002Z,94.54
2022-10-11T22:47:27.941Z,95.41
2022-10-11T22:53:30.627Z,95.53
2022-10-11T22:59:32.852Z,95.65
2022-10-11T23:05:35.462Z,96.36
2022-10-11T23:11:37.317Z,96.79
2022-10-11T23:17:41.152Z,96.61
2022-10-11T23:23:45.984Z,96.35
2022-10-11T23:29:47.840Z,97.06
2022-10-11T23:35:49.962Z,97.47
2022-10-11T23:41:51.829Z,96.97
2022-10-11T23:47:53.715Z,97.21
2022-10-11T23:53:55.651Z,97.50
2022-10-11T23:59:57.519Z,96.93
